Time;durP1;ratioP1;P1;durP2;ratioP2;P2;SDS_P1;SDS_P2;PMS_P1;PMS_P2;Temp;Humidity;BMP_temperature;BMP_pressure;BME280_temperature;BME280_humidity;BME280_pressure;Samples;Min_cycle;Max_cycle;Signal;HPM_P1;HPM_P2
2023/03/21 00:01:02;;;;;;;8.65;4.85;;;;;;;;;;6030181;23;20093;-80
2023/03/21 00:03:33;;;;;;;7.05;5.13;;;;;;;;;;6049863;23;20093;-81
2023/03/21 00:06:06;;;;;;;6.93;4.63;;;;;;;;;;6050884;23;20033;-80
2023/03/21 00:08:39;;;;;;;6.70;4.32;;;;;;;;;;6051883;23;20025;-80
2023/03/21 00:11:16;;;;;;;8.98;4.70;;;;;;;;;;6053342;23;20031;-80
2023/03/21 00:13:49;;;;;;;5.72;4.10;;;;;;;;;;6029857;23;20623;-80
2023/03/21 00:16:17;;;;;;;5.90;4.70;;;;;;;;;;6025104;23;20646;-79
2023/03/21 00:18:57;;;;;;;6.07;4.63;;;;;;;;;;6053247;23;20030;-80
2023/03/21 00:21:31;;;;;;;7.50;4.18;;;;;;;;;;6048771;23;20022;-79
2023/03/21 00:24:24;;;;;;;6.30;3.90;;;;;;;;;;6058347;23;20023;-80
2023/03/21 00:26:51;;;;;;;;;;;;;;;;;;6050122;23;20235;-79
2023/03/21 00:29:21;;;;;;;7.70;4.32;;;;;;;;;;6073388;23;19917;-78
2023/03/21 00:31:48;;;;;;;7.53;4.40;;;;;;;;;;6073242;23;20029;-79
2023/03/21 00:34:16;;;;;;;8.23;5.05;;;;;;;;;;6024791;23;20025;-79
2023/03/21 00:36:57;;;;;;;8.45;4.40;;;;;;;;;;6054533;23;20028;-79
2023/03/21 00:39:25;;;;;;;8.45;4.55;;;;;;;;;;6024855;23;20062;-78
2023/03/21 00:41:58;;;;;;;7.22;4.53;;;;;;;;;;6047763;23;20026;-80
2023/03/21 00:44:40;;;;;;;9.23;5.55;;;;;;;;;;6050277;23;20045;-79
2023/03/21 00:47:17;;;;;;;8.65;4.85;;;;;;;;;;6052478;23;20046;-79
2023/03/21 00:49:44;;;;;;;5.07;4.20;;;;;;;;;;6051313;23;20026;-78
2023/03/21 00:52:12;;;;;;;9.05;4.88;;;;;;;;;;6025579;23;20022;-77
2023/03/21 00:54:56;;;;;;;6.35;4.43;;;;;;;;;;6039232;23;20023;-77
2023/03/21 00:57:26;;;;;;;7.80;4.65;;;;;;;;;;6030576;23;20511;-78
2023/03/21 01:00:06;;;;;;;6.72;4.30;;;;;;;;;;6050633;23;20014;-79
2023/03/21 01:02:36;;;;;;;6.30;4.28;;;;;;;;;;6078173;23;20042;-78
2023/03/21 01:05:04;;;;;;;6.22;4.20;;;;;;;;;;6076231;23;20062;-78
2023/03/21 01:07:31;;;;;;;5.00;4.05;;;;;;;;;;6076020;23;20022;-78
2023/03/21 01:09:57;;;;;;;4.30;3.63;;;;;;;;;;6051919;23;20010;-81
2023/03/21 01:12:24;;;;;;;6.50;4.35;;;;;;;;;;6051731;23;20024;-82
2023/03/21 01:14:51;;;;;;;5.30;3.78;;;;;;;;;;6051655;23;20028;-82
2023/03/21 01:17:18;;;;;;;6.00;4.10;;;;;;;;;;6051792;23;20033;-80
2023/03/21 01:19:54;;;;;;;6.15;4.40;;;;;;;;;;6051264;23;20018;-82
2023/03/21 01:22:21;;;;;;;6.10;4.22;;;;;;;;;;6098728;23;20050;-82
2023/03/21 01:24:48;;;;;;;5.15;4.15;;;;;;;;;;6049888;23;20026;-82
2023/03/21 01:27:24;;;;;;;5.13;4.22;;;;;;;;;;6055515;23;20042;-80
2023/03/21 01:29:52;;;;;;;4.72;3.88;;;;;;;;;;6050757;23;20074;-79
2023/03/21 01:32:18;;;;;;;8.05;3.85;;;;;;;;;;6088528;23;20098;-81
2023/03/21 01:34:45;;;;;;;5.47;4.15;;;;;;;;;;6047187;23;20018;-80
2023/03/21 01:37:13;;;;;;;5.85;4.53;;;;;;;;;;6047228;23;20022;-79
2023/03/21 01:39:40;;;;;;;6.93;3.88;;;;;;;;;;6047845;23;20026;-79
2023/03/21 01:42:11;;;;;;;5.20;4.65;;;;;;;;;;6070100;23;20024;-79
2023/03/21 01:44:56;;;;;;;7.75;4.57;;;;;;;;;;6047549;23;20019;-79
2023/03/21 01:47:23;;;;;;;7.72;4.30;;;;;;;;;;6048115;23;20023;-79
2023/03/21 01:49:51;;;;;;;7.22;4.60;;;;;;;;;;6046229;23;20053;-79
2023/03/21 01:52:22;;;;;;;9.27;4.18;;;;;;;;;;6047013;23;20022;-79
2023/03/21 01:55:06;;;;;;;8.90;4.28;;;;;;;;;;6052968;23;20061;-79
2023/03/21 01:57:38;;;;;;;6.80;4.35;;;;;;;;;;6047227;23;20027;-78
2023/03/21 02:00:20;;;;;;;5.88;4.53;;;;;;;;;;6053577;23;20022;-78
2023/03/21 02:02:50;;;;;;;6.50;4.78;;;;;;;;;;6023645;23;20100;-78
2023/03/21 02:05:20;;;;;;;6.63;4.70;;;;;;;;;;6025134;23;20023;-78
2023/03/21 02:07:47;;;;;;;5.50;4.00;;;;;;;;;;6047063;23;20085;-78
2023/03/21 02:10:14;;;;;;;5.65;3.70;;;;;;;;;;6046202;23;20027;-78
2023/03/21 02:12:41;;;;;;;5.80;3.70;;;;;;;;;;6023026;23;20326;-77
2023/03/21 02:15:09;;;;;;;5.10;3.90;;;;;;;;;;6046504;23;20022;-77
2023/03/21 02:17:58;;;;;;;4.28;3.72;;;;;;;;;;6046298;23;20360;-78
2023/03/21 02:20:44;;;;;;;5.80;3.85;;;;;;;;;;6069422;23;20018;-78
2023/03/21 02:23:19;;;;;;;8.23;4.97;;;;;;;;;;6070099;23;20028;-78
2023/03/21 02:26:06;;;;;;;8.43;4.63;;;;;;;;;;6069852;23;20028;-79
2023/03/21 02:29:24;;;;;;;7.40;4.15;;;;;;;;;;6048676;23;20038;-78
2023/03/21 02:32:02;;;;;;;7.10;4.40;;;;;;;;;;6056839;23;20023;-78
2023/03/21 02:35:11;;;;;;;6.32;3.92;;;;;;;;;;6074874;23;20368;-78
2023/03/21 02:38:00;;;;;;;5.75;3.90;;;;;;;;;;6049801;23;20487;-79
2023/03/21 02:41:02;;;;;;;6.38;4.05;;;;;;;;;;6073647;23;20360;-78
2023/03/21 02:43:38;;;;;;;7.15;4.20;;;;;;;;;;6095256;23;20018;-79
2023/03/21 02:46:13;;;;;;;5.13;4.35;;;;;;;;;;6069715;23;20356;-78
2023/03/21 02:48:52;;;;;;;6.75;4.25;;;;;;;;;;6023407;23;20030;-78
2023/03/21 02:51:21;;;;;;;8.00;4.70;;;;;;;;;;6046092;23;20165;-79
2023/03/21 02:53:51;;;;;;;6.53;4.28;;;;;;;;;;6046376;23;20018;-79
2023/03/21 02:56:39;;;;;;;9.75;5.00;;;;;;;;;;6053507;23;20026;-79
2023/03/21 02:59:06;;;;;;;7.53;4.50;;;;;;;;;;6045772;23;20053;-79
2023/03/21 03:01:33;;;;;;;7.40;3.88;;;;;;;;;;6021646;23;20041;-77
2023/03/21 03:04:00;;;;;;;6.47;4.10;;;;;;;;;;6021867;23;20022;-78
2023/03/21 03:06:36;;;;;;;5.57;3.90;;;;;;;;;;6045623;23;20089;-78
2023/03/21 03:09:03;;;;;;;6.90;4.20;;;;;;;;;;6047831;23;20045;-80
2023/03/21 03:11:34;;;;;;;7.20;4.30;;;;;;;;;;6069538;23;20110;-80
2023/03/21 03:14:32;;;;;;;5.82;3.75;;;;;;;;;;6046701;23;20030;-79
2023/03/21 03:17:24;;;;;;;4.40;3.90;;;;;;;;;;6077160;23;20587;-79
2023/03/21 03:20:12;;;;;;;6.03;4.18;;;;;;;;;;6046392;23;20532;-79
2023/03/21 03:22:53;;;;;;;5.95;4.18;;;;;;;;;;6070577;23;20445;-79
2023/03/21 03:25:24;;;;;;;5.63;4.13;;;;;;;;;;6046923;23;20023;-79
2023/03/21 03:28:07;;;;;;;7.05;4.22;;;;;;;;;;6053125;23;20062;-78
2023/03/21 03:30:35;;;;;;;7.95;4.57;;;;;;;;;;6069262;23;20032;-79
2023/03/21 03:33:15;;;;;;;5.75;4.40;;;;;;;;;;6051219;23;20018;-85
2023/03/21 03:35:43;;;;;;;5.88;4.43;;;;;;;;;;6045112;23;20014;-77
2023/03/21 03:38:18;;;;;;;5.05;4.03;;;;;;;;;;6048770;23;20026;-79
2023/03/21 03:40:49;;;;;;;6.50;4.18;;;;;;;;;;6045613;23;20092;-80
2023/03/21 03:43:25;;;;;;;5.75;3.95;;;;;;;;;;6049242;23;20026;-81
2023/03/21 03:46:01;;;;;;;7.43;4.10;;;;;;;;;;6051707;23;20027;-80
2023/03/21 03:48:33;;;;;;;5.72;4.05;;;;;;;;;;6051460;23;20097;-80
2023/03/21 03:51:08;;;;;;;4.82;3.47;;;;;;;;;;6049207;23;20326;-79
2023/03/21 03:53:44;;;;;;;5.65;3.90;;;;;;;;;;6051856;23;20078;-80
2023/03/21 03:56:11;;;;;;;4.15;3.60;;;;;;;;;;6027753;23;20046;-81
2023/03/21 03:58:38;;;;;;;4.95;3.88;;;;;;;;;;6026044;23;20461;-78
2023/03/21 04:01:11;;;;;;;6.03;3.35;;;;;;;;;;6050886;23;20438;-79
2023/03/21 04:03:40;;;;;;;6.65;3.88;;;;;;;;;;6026097;23;20053;-80
2023/03/21 04:06:17;;;;;;;6.35;4.20;;;;;;;;;;6054591;23;20030;-80
2023/03/21 04:08:43;;;;;;;5.70;3.67;;;;;;;;;;6050320;23;20457;-80
2023/03/21 04:11:14;;;;;;;5.82;3.97;;;;;;;;;;6051423;23;20388;-81
2023/03/21 04:13:41;;;;;;;4.50;3.42;;;;;;;;;;6051196;23;20476;-82
2023/03/21 04:16:10;;;;;;;4.13;3.63;;;;;;;;;;6051447;23;20026;-81
2023/03/21 04:18:38;;;;;;;6.20;3.90;;;;;;;;;;6052270;23;20026;-80
2023/03/21 04:21:11;;;;;;;4.90;3.45;;;;;;;;;;6050503;23;20491;-83
2023/03/21 04:23:39;;;;;;;6.20;3.97;;;;;;;;;;6050793;23;20088;-77
2023/03/21 04:26:06;;;;;;;5.20;4.03;;;;;;;;;;6049049;23;20365;-77
2023/03/21 04:28:35;;;;;;;6.15;3.67;;;;;;;;;;6049290;23;20026;-78
2023/03/21 04:31:05;;;;;;;6.68;4.03;;;;;;;;;;6026010;23;20481;-78
2023/03/21 04:33:48;;;;;;;6.22;4.32;;;;;;;;;;6035462;23;20361;-77
2023/03/21 04:36:23;;;;;;;4.68;3.80;;;;;;;;;;6026127;23;20060;-78
2023/03/21 04:38:51;;;;;;;5.07;4.25;;;;;;;;;;6096944;23;20030;-78
2023/03/21 04:41:18;;;;;;;6.75;3.75;;;;;;;;;;6024904;23;20022;-77
2023/03/21 04:43:46;;;;;;;5.40;3.80;;;;;;;;;;6048472;23;20030;-78
2023/03/21 04:46:12;;;;;;;6.00;4.50;;;;;;;;;;6025625;23;20022;-78
2023/03/21 04:48:40;;;;;;;7.00;4.55;;;;;;;;;;6073240;23;20081;-78
2023/03/21 04:51:06;;;;;;;5.20;4.07;;;;;;;;;;6049103;23;20521;-78
2023/03/21 04:53:33;;;;;;;6.78;4.05;;;;;;;;;;6072607;23;20469;-77
2023/03/21 04:56:00;;;;;;;4.93;4.00;;;;;;;;;;6024638;23;20118;-78
2023/03/21 04:58:27;;;;;;;5.20;3.65;;;;;;;;;;6048756;23;20037;-77
2023/03/21 05:00:54;;;;;;;5.50;4.30;;;;;;;;;;6049113;23;20360;-77
2023/03/21 05:03:20;;;;;;;5.50;3.97;;;;;;;;;;6073968;23;20026;-78
2023/03/21 05:05:48;;;;;;;7.78;4.38;;;;;;;;;;6080696;23;20023;-77
2023/03/21 05:08:15;;;;;;;5.10;4.03;;;;;;;;;;6066141;23;20082;-79
2023/03/21 05:10:42;;;;;;;5.65;4.30;;;;;;;;;;6048626;23;20022;-77
2023/03/21 05:13:09;;;;;;;6.47;4.78;;;;;;;;;;6048004;23;20361;-77
2023/03/21 05:15:35;;;;;;;8.30;5.32;;;;;;;;;;6024848;23;20373;-78
2023/03/21 05:18:10;;;;;;;5.72;4.10;;;;;;;;;;6072483;23;20033;-78
2023/03/21 05:20:43;;;;;;;5.20;4.28;;;;;;;;;;6071952;23;20407;-78
2023/03/21 05:23:10;;;;;;;;;;;;;;;;;;6049123;23;20053;-78
2023/03/21 05:25:38;;;;;;;5.43;3.80;;;;;;;;;;6070893;23;19917;-78
2023/03/21 05:28:06;;;;;;;6.75;4.40;;;;;;;;;;6046999;23;20030;-78
2023/03/21 05:30:33;;;;;;;4.40;4.00;;;;;;;;;;6046226;23;20042;-78
2023/03/21 05:33:00;;;;;;;4.47;3.83;;;;;;;;;;6047353;23;20066;-78
2023/03/21 05:35:27;;;;;;;7.22;4.18;;;;;;;;;;6023591;23;20022;-78
2023/03/21 05:37:54;;;;;;;10.07;4.25;;;;;;;;;;6047628;23;20026;-78
2023/03/21 05:40:21;;;;;;;6.25;3.70;;;;;;;;;;6022853;23;20487;-78
2023/03/21 05:42:47;;;;;;;4.90;3.65;;;;;;;;;;6046878;23;20102;-77
2023/03/21 05:45:14;;;;;;;5.13;3.65;;;;;;;;;;6022921;23;20022;-78
2023/03/21 05:47:41;;;;;;;7.25;4.15;;;;;;;;;;6025287;23;20027;-79
2023/03/21 05:50:10;;;;;;;6.25;4.00;;;;;;;;;;6046803;23;20019;-77
2023/03/21 05:52:36;;;;;;;5.78;4.13;;;;;;;;;;6047218;23;20117;-81
2023/03/21 05:55:04;;;;;;;7.35;4.22;;;;;;;;;;6023147;23;20360;-77
2023/03/21 05:57:33;;;;;;;8.00;4.10;;;;;;;;;;6046126;23;20023;-79
2023/03/21 06:00:00;;;;;;;8.05;4.47;;;;;;;;;;6023063;23;20026;-77
2023/03/21 06:02:27;;;;;;;10.73;4.50;;;;;;;;;;6044778;23;20022;-78
2023/03/21 06:04:55;;;;;;;6.60;4.72;;;;;;;;;;6046365;23;20087;-81
2023/03/21 06:07:22;;;;;;;6.70;3.70;;;;;;;;;;6047673;23;20589;-80
2023/03/21 06:09:48;;;;;;;7.95;5.07;;;;;;;;;;6071030;23;20101;-80
2023/03/21 06:12:15;;;;;;;5.85;4.65;;;;;;;;;;6023699;23;20029;-81
2023/03/21 06:14:42;;;;;;;6.20;4.03;;;;;;;;;;6048565;23;20019;-81
2023/03/21 06:17:09;;;;;;;6.57;4.30;;;;;;;;;;6049278;23;20033;-81
2023/03/21 06:19:36;;;;;;;5.70;4.53;;;;;;;;;;6059170;23;20034;-83
2023/03/21 06:22:05;;;;;;;8.43;4.78;;;;;;;;;;6050331;23;20058;-76
2023/03/21 06:24:32;;;;;;;9.00;4.70;;;;;;;;;;6097066;23;20006;-85
2023/03/21 06:26:59;;;;;;;6.35;4.30;;;;;;;;;;6097794;23;20010;-83
2023/03/21 06:29:30;;;;;;;8.20;4.65;;;;;;;;;;6064067;23;20022;-81
2023/03/21 06:31:56;;;;;;;9.55;4.60;;;;;;;;;;6054543;23;20062;-80
2023/03/21 06:34:23;;;;;;;5.63;4.00;;;;;;;;;;6026568;23;20027;-80
2023/03/21 06:36:51;;;;;;;5.03;3.42;;;;;;;;;;6027117;23;20022;-81
2023/03/21 06:39:17;;;;;;;7.25;4.22;;;;;;;;;;6049501;23;20026;-80
2023/03/21 06:41:44;;;;;;;4.60;3.90;;;;;;;;;;6049850;23;20022;-80
2023/03/21 06:44:11;;;;;;;5.93;4.50;;;;;;;;;;6025310;23;20026;-80
2023/03/21 06:46:38;;;;;;;8.85;4.57;;;;;;;;;;6048348;23;20018;-81
2023/03/21 06:49:04;;;;;;;8.93;4.65;;;;;;;;;;6047676;23;20033;-79
2023/03/21 06:51:31;;;;;;;6.63;4.07;;;;;;;;;;6046806;23;20031;-76
2023/03/21 06:53:58;;;;;;;5.72;4.15;;;;;;;;;;6069198;23;20030;-74
2023/03/21 06:56:25;;;;;;;6.05;4.13;;;;;;;;;;6067887;23;20026;-74
2023/03/21 06:58:52;;;;;;;6.47;4.20;;;;;;;;;;6044476;23;20030;-74
2023/03/21 07:01:19;;;;;;;5.55;4.15;;;;;;;;;;6068470;23;20022;-74
2023/03/21 07:03:47;;;;;;;8.00;5.07;;;;;;;;;;6021123;23;20081;-74
2023/03/21 07:06:13;;;;;;;7.25;4.63;;;;;;;;;;6044589;23;20100;-78
2023/03/21 07:08:40;;;;;;;6.68;4.43;;;;;;;;;;6045240;23;20030;-78
2023/03/21 07:11:07;;;;;;;6.35;4.10;;;;;;;;;;6021780;23;20022;-78
2023/03/21 07:13:34;;;;;;;7.03;4.60;;;;;;;;;;6047388;23;20037;-80
2023/03/21 07:16:01;;;;;;;7.30;4.45;;;;;;;;;;6024818;23;20019;-79
2023/03/21 07:18:29;;;;;;;9.98;5.18;;;;;;;;;;6046177;23;20075;-80
2023/03/21 07:20:56;;;;;;;7.57;4.80;;;;;;;;;;6069159;23;20066;-74
2023/03/21 07:23:24;;;;;;;9.25;4.28;;;;;;;;;;6045405;23;20037;-83
2023/03/21 07:25:51;;;;;;;11.52;4.88;;;;;;;;;;6045773;23;20042;-80
2023/03/21 07:28:19;;;;;;;11.02;4.72;;;;;;;;;;6046348;23;20026;-76
2023/03/21 07:30:51;;;;;;;5.97;4.40;;;;;;;;;;6047132;23;20027;-80
2023/03/21 07:33:18;;;;;;;5.97;4.20;;;;;;;;;;6048361;23;20026;-81
2023/03/21 07:35:45;;;;;;;6.97;4.00;;;;;;;;;;6024871;23;20026;-82
2023/03/21 07:38:15;;;;;;;5.05;3.78;;;;;;;;;;6025925;23;20026;-81
2023/03/21 07:40:44;;;;;;;6.07;3.95;;;;;;;;;;6026545;23;20029;-81
2023/03/21 07:43:12;;;;;;;4.65;3.53;;;;;;;;;;6047948;23;20033;-81
2023/03/21 07:45:39;;;;;;;5.72;3.85;;;;;;;;;;6047900;23;20097;-81
2023/03/21 07:48:06;;;;;;;5.93;4.22;;;;;;;;;;6026433;23;20026;-81
2023/03/21 07:50:33;;;;;;;6.93;4.43;;;;;;;;;;6073842;23;20053;-80
2023/03/21 07:53:00;;;;;;;4.60;3.65;;;;;;;;;;6048328;23;20022;-81
2023/03/21 07:55:27;;;;;;;6.20;3.47;;;;;;;;;;6026121;23;20109;-80
2023/03/21 07:57:53;;;;;;;5.70;3.60;;;;;;;;;;6050450;23;20033;-81
2023/03/21 08:00:24;;;;;;;5.85;3.50;;;;;;;;;;6048979;23;20413;-80
2023/03/21 08:02:55;;;;;;;3.78;3.13;;;;;;;;;;6049752;23;20018;-81
2023/03/21 08:05:27;;;;;;;5.32;3.80;;;;;;;;;;6051689;23;20129;-81
2023/03/21 08:07:54;;;;;;;6.65;3.60;;;;;;;;;;6073797;23;20410;-81
2023/03/21 08:10:21;;;;;;;4.80;3.10;;;;;;;;;;6049500;23;20026;-81
2023/03/21 08:12:48;;;;;;;5.82;2.63;;;;;;;;;;6049391;23;20027;-81
2023/03/21 08:15:15;;;;;;;2.92;2.58;;;;;;;;;;6049020;23;20029;-81
2023/03/21 08:17:44;;;;;;;5.43;3.47;;;;;;;;;;6025872;23;20106;-81
2023/03/21 08:20:13;;;;;;;4.13;3.55;;;;;;;;;;6049126;23;20022;-81
2023/03/21 08:22:41;;;;;;;5.15;3.42;;;;;;;;;;6049323;23;20033;-81
2023/03/21 08:25:12;;;;;;;2.85;2.42;;;;;;;;;;6048655;23;20023;-81
2023/03/21 08:27:41;;;;;;;3.33;2.63;;;;;;;;;;6050549;23;20074;-81
2023/03/21 08:30:09;;;;;;;4.40;2.58;;;;;;;;;;6051170;23;20022;-81
2023/03/21 08:32:37;;;;;;;4.03;2.70;;;;;;;;;;6051482;23;20037;-82
2023/03/21 08:35:08;;;;;;;5.40;2.88;;;;;;;;;;6052405;23;20341;-81
2023/03/21 08:37:36;;;;;;;4.43;3.20;;;;;;;;;;6052451;23;20022;-82
2023/03/21 08:40:10;;;;;;;4.78;2.90;;;;;;;;;;6051233;23;20022;-81
2023/03/21 08:42:37;;;;;;;4.10;2.53;;;;;;;;;;6051509;23;20054;-80
2023/03/21 08:45:05;;;;;;;3.10;1.88;;;;;;;;;;6051271;23;20022;-82
2023/03/21 08:47:32;;;;;;;3.88;2.47;;;;;;;;;;6051153;23;20029;-81
2023/03/21 08:49:59;;;;;;;4.22;3.05;;;;;;;;;;6098204;23;20050;-82
2023/03/21 08:52:26;;;;;;;3.80;2.22;;;;;;;;;;6027876;23;20410;-81
2023/03/21 08:54:53;;;;;;;3.67;2.22;;;;;;;;;;6027568;23;20026;-82
2023/03/21 08:57:20;;;;;;;3.05;1.70;;;;;;;;;;6050513;23;20030;-82
2023/03/21 08:59:47;;;;;;;4.47;1.90;;;;;;;;;;6028112;23;20026;-81
2023/03/21 09:02:15;;;;;;;5.70;1.98;;;;;;;;;;6027242;23;20022;-81
2023/03/21 09:04:43;;;;;;;4.93;2.70;;;;;;;;;;6051017;23;20033;-81
2023/03/21 09:07:13;;;;;;;2.17;1.98;;;;;;;;;;6050904;23;20022;-81
2023/03/21 09:09:41;;;;;;;3.38;2.00;;;;;;;;;;6052215;23;20550;-81
2023/03/21 09:12:08;;;;;;;2.55;1.85;;;;;;;;;;6051120;23;20033;-81
2023/03/21 09:14:34;;;;;;;2.90;1.60;;;;;;;;;;6051063;23;20030;-81
2023/03/21 09:17:01;;;;;;;2.15;1.58;;;;;;;;;;6074203;23;20022;-81
2023/03/21 09:19:29;;;;;;;2.40;1.58;;;;;;;;;;6050038;23;20045;-82
2023/03/21 09:21:56;;;;;;;4.70;1.52;;;;;;;;;;6026843;23;20030;-82
2023/03/21 09:24:23;;;;;;;2.13;1.58;;;;;;;;;;6051075;23;20028;-81
2023/03/21 09:26:50;;;;;;;2.28;1.40;;;;;;;;;;6026903;23;20023;-81
2023/03/21 09:29:21;;;;;;;2.85;1.50;;;;;;;;;;6026206;23;20033;-80
2023/03/21 09:31:48;;;;;;;2.53;1.90;;;;;;;;;;6028275;23;20041;-81
2023/03/21 09:34:15;;;;;;;4.00;2.20;;;;;;;;;;6050553;23;20033;-81
2023/03/21 09:36:47;;;;;;;3.60;2.17;;;;;;;;;;6050621;23;20018;-81
2023/03/21 09:39:15;;;;;;;4.53;2.15;;;;;;;;;;6028752;23;20029;-80
2023/03/21 09:42:06;;;;;;;5.63;2.80;;;;;;;;;;6025576;23;20022;-80
2023/03/21 09:44:52;;;;;;;3.85;2.17;;;;;;;;;;6054031;23;20085;-81
2023/03/21 09:47:27;;;;;;;3.20;1.80;;;;;;;;;;6073260;23;20030;-81
2023/03/21 09:50:02;;;;;;;2.50;1.73;;;;;;;;;;6029646;23;20030;-81
2023/03/21 09:52:43;;;;;;;5.30;2.40;;;;;;;;;;6056410;23;20058;-81
2023/03/21 09:55:30;;;;;;;2.42;1.40;;;;;;;;;;6073503;23;20026;-81
2023/03/21 09:58:05;;;;;;;2.17;1.65;;;;;;;;;;6026145;23;20018;-81
2023/03/21 10:00:36;;;;;;;2.88;1.60;;;;;;;;;;6073523;23;20018;-81
2023/03/21 10:03:08;;;;;;;5.55;2.00;;;;;;;;;;6049958;23;20097;-81
2023/03/21 10:05:38;;;;;;;3.78;2.33;;;;;;;;;;6051693;23;20415;-80
2023/03/21 10:08:12;;;;;;;3.13;1.88;;;;;;;;;;6030335;23;20054;-80
2023/03/21 10:10:55;;;;;;;5.43;2.17;;;;;;;;;;6082458;23;20030;-80
2023/03/21 10:13:24;;;;;;;2.70;2.22;;;;;;;;;;6053329;23;20393;-81
2023/03/21 10:15:59;;;;;;;3.60;2.10;;;;;;;;;;6050315;23;20018;-81
2023/03/21 10:18:28;;;;;;;2.72;1.70;;;;;;;;;;6072927;23;20584;-80
2023/03/21 10:20:55;;;;;;;4.63;2.40;;;;;;;;;;6050278;23;20365;-81
2023/03/21 10:23:25;;;;;;;2.83;1.83;;;;;;;;;;6025862;23;20022;-81
2023/03/21 10:25:55;;;;;;;2.97;1.88;;;;;;;;;;6026983;23;20348;-81
2023/03/21 10:28:24;;;;;;;3.50;1.98;;;;;;;;;;6050645;23;20089;-80
2023/03/21 10:30:52;;;;;;;2.60;2.08;;;;;;;;;;6049625;23;20026;-80
2023/03/21 10:33:24;;;;;;;2.45;1.55;;;;;;;;;;6073086;23;20035;-80
2023/03/21 10:35:54;;;;;;;6.37;2.10;;;;;;;;;;6050426;23;20019;-81
2023/03/21 10:38:23;;;;;;;2.10;1.40;;;;;;;;;;6050207;23;20361;-80
2023/03/21 10:40:50;;;;;;;2.50;1.40;;;;;;;;;;6074202;23;20032;-81
2023/03/21 10:43:25;;;;;;;2.97;2.25;;;;;;;;;;6027075;23;20026;-81
2023/03/21 10:45:54;;;;;;;3.17;1.85;;;;;;;;;;6073303;23;20015;-80
2023/03/21 10:48:22;;;;;;;4.43;2.08;;;;;;;;;;6050425;23;20026;-81
2023/03/21 10:50:51;;;;;;;3.70;1.98;;;;;;;;;;6050457;23;20028;-81
2023/03/21 10:53:31;;;;;;;2.95;2.25;;;;;;;;;;6049208;23;20037;-80
2023/03/21 10:55:59;;;;;;;3.63;2.10;;;;;;;;;;6052049;23;20014;-80
2023/03/21 10:58:33;;;;;;;2.38;1.52;;;;;;;;;;6026289;23;20023;-80
2023/03/21 11:01:02;;;;;;;3.75;2.15;;;;;;;;;;6050917;23;20019;-80
2023/03/21 11:03:31;;;;;;;2.40;2.20;;;;;;;;;;6050487;23;20461;-80
2023/03/21 11:06:05;;;;;;;3.40;1.73;;;;;;;;;;6049322;23;20153;-82
2023/03/21 11:08:49;;;;;;;2.05;1.60;;;;;;;;;;6074525;23;20069;-82
2023/03/21 11:11:25;;;;;;;2.78;1.67;;;;;;;;;;6051468;23;20045;-82
2023/03/21 11:14:33;;;;;;;2.50;1.92;;;;;;;;;;6050802;23;20484;-81
2023/03/21 11:17:00;;;;;;;3.13;1.55;;;;;;;;;;6071958;23;20018;-81
2023/03/21 11:19:32;;;;;;;2.47;1.90;;;;;;;;;;6073347;23;20030;-81
2023/03/21 11:22:04;;;;;;;5.20;2.03;;;;;;;;;;6050312;23;20023;-81
2023/03/21 11:24:31;;;;;;;2.20;2.00;;;;;;;;;;6049986;23;20036;-81
2023/03/21 11:26:58;;;;;;;2.35;1.83;;;;;;;;;;6025909;23;20022;-81
2023/03/21 11:29:40;;;;;;;6.38;2.05;;;;;;;;;;6026706;23;20026;-82
2023/03/21 11:32:24;;;;;;;2.03;1.60;;;;;;;;;;6072642;23;20101;-82
2023/03/21 11:34:59;;;;;;;2.42;2.00;;;;;;;;;;6073928;23;20058;-82
2023/03/21 11:37:45;;;;;;;2.00;1.80;;;;;;;;;;6049781;23;20027;-82
2023/03/21 11:40:20;;;;;;;3.70;1.88;;;;;;;;;;6052579;23;20049;-82
2023/03/21 11:42:50;;;;;;;3.60;2.10;;;;;;;;;;6048971;23;20048;-80
2023/03/21 11:45:17;;;;;;;2.30;1.75;;;;;;;;;;6049462;23;20360;-80
2023/03/21 11:47:45;;;;;;;3.90;1.90;;;;;;;;;;6071996;23;20018;-80
2023/03/21 11:50:24;;;;;;;4.25;1.85;;;;;;;;;;6048939;23;20460;-81
2023/03/21 11:53:00;;;;;;;3.22;1.85;;;;;;;;;;6073743;23;20022;-81
2023/03/21 11:55:45;;;;;;;4.85;1.75;;;;;;;;;;6074386;23;20423;-81
2023/03/21 11:58:37;;;;;;;2.50;1.73;;;;;;;;;;6074090;23;20034;-81
2023/03/21 12:01:14;;;;;;;3.85;2.05;;;;;;;;;;6073325;23;20018;-81
2023/03/21 12:03:50;;;;;;;4.25;2.00;;;;;;;;;;6075141;23;20475;-80
2023/03/21 12:06:33;;;;;;;2.33;2.10;;;;;;;;;;6075786;23;20022;-80
2023/03/21 12:09:14;;;;;;;5.00;2.28;;;;;;;;;;6053788;23;20037;-81
2023/03/21 12:11:55;;;;;;;;;;;;;;;;;;6055424;23;20022;-81
2023/03/21 12:14:35;;;;;;;3.50;2.70;;;;;;;;;;6074706;23;20244;-81
2023/03/21 12:17:11;;;;;;;4.03;2.17;;;;;;;;;;6052421;23;20024;-81
2023/03/21 12:19:59;;;;;;;2.55;2.10;;;;;;;;;;6075228;23;20018;-81
2023/03/21 12:22:29;;;;;;;4.03;2.28;;;;;;;;;;6076066;23;20376;-81
2023/03/21 12:24:57;;;;;;;5.25;2.33;;;;;;;;;;6075340;23;20364;-81
2023/03/21 12:27:42;;;;;;;4.38;2.47;;;;;;;;;;6051696;23;20050;-81
2023/03/21 12:30:23;;;;;;;4.07;2.58;;;;;;;;;;6075383;23;20030;-80
2023/03/21 12:33:02;;;;;;;4.57;2.03;;;;;;;;;;6075035;23;20037;-81
2023/03/21 12:35:54;;;;;;;2.72;2.38;;;;;;;;;;6074954;23;20110;-80
2023/03/21 12:38:27;;;;;;;4.78;2.35;;;;;;;;;;6075445;23;20046;-80
2023/03/21 12:40:58;;;;;;;4.90;2.55;;;;;;;;;;6074571;23;20070;-80
2023/03/21 12:43:48;;;;;;;4.78;2.60;;;;;;;;;;6074478;23;20416;-80
2023/03/21 12:46:48;;;;;;;3.40;2.90;;;;;;;;;;6073641;23;20365;-80
2023/03/21 12:49:23;;;;;;;4.22;2.28;;;;;;;;;;6073910;23;20027;-80
2023/03/21 12:51:53;;;;;;;4.85;2.40;;;;;;;;;;6051582;23;20694;-80
2023/03/21 12:54:31;;;;;;;5.13;2.75;;;;;;;;;;6052160;23;20026;-81
2023/03/21 12:57:30;;;;;;;3.15;2.42;;;;;;;;;;6075664;23;20023;-81
2023/03/21 13:00:30;;;;;;;4.07;2.80;;;;;;;;;;6097881;23;20473;-81
2023/03/21 13:03:10;;;;;;;4.28;2.40;;;;;;;;;;6079105;23;20026;-81
2023/03/21 13:06:03;;;;;;;5.10;2.45;;;;;;;;;;6077559;23;20534;-81
2023/03/21 13:08:36;;;;;;;2.65;2.15;;;;;;;;;;6049202;23;20093;-81
2023/03/21 13:11:03;;;;;;;3.80;2.13;;;;;;;;;;6050484;23;20025;-81
2023/03/21 13:13:59;;;;;;;2.83;2.40;;;;;;;;;;6051267;23;20488;-82
2023/03/21 13:16:36;;;;;;;3.50;2.10;;;;;;;;;;6079056;23;20022;-81
2023/03/21 13:19:27;;;;;;;4.30;2.90;;;;;;;;;;6052756;23;20022;-81
2023/03/21 13:22:09;;;;;;;3.13;2.70;;;;;;;;;;6075660;23;20026;-81
2023/03/21 13:24:50;;;;;;;5.05;2.42;;;;;;;;;;6076145;23;20360;-81
2023/03/21 13:27:33;;;;;;;3.95;2.42;;;;;;;;;;6051694;23;20014;-81
2023/03/21 13:30:20;;;;;;;3.78;2.40;;;;;;;;;;6051994;23;20471;-80
2023/03/21 13:32:51;;;;;;;3.85;2.30;;;;;;;;;;6049667;23;20034;-76
2023/03/21 13:35:28;;;;;;;4.93;2.20;;;;;;;;;;6063131;23;20006;-75
2023/03/21 13:38:15;;;;;;;4.15;2.38;;;;;;;;;;6035454;23;20357;-75
2023/03/21 13:40:56;;;;;;;4.13;2.50;;;;;;;;;;6077028;23;20026;-75
2023/03/21 13:43:39;;;;;;;3.47;2.08;;;;;;;;;;6071062;23;20369;-75
2023/03/21 13:46:09;;;;;;;8.20;2.90;;;;;;;;;;6071349;23;20416;-75
2023/03/21 13:48:42;;;;;;;5.25;2.25;;;;;;;;;;6024193;23;20026;-75
2023/03/21 13:51:27;;;;;;;4.65;2.40;;;;;;;;;;6051862;23;20101;-76
2023/03/21 13:54:07;;;;;;;2.50;2.08;;;;;;;;;;6067774;23;20022;-81
2023/03/21 13:56:51;;;;;;;7.80;2.45;;;;;;;;;;6069082;23;20350;-81
2023/03/21 13:59:39;;;;;;;3.72;2.92;;;;;;;;;;6050621;23;20037;-82
2023/03/21 14:02:12;;;;;;;5.90;2.67;;;;;;;;;;6098085;23;20019;-81
2023/03/21 14:04:40;;;;;;;6.03;2.60;;;;;;;;;;6074162;23;20489;-80
2023/03/21 14:07:27;;;;;;;5.70;1.95;;;;;;;;;;6058464;23;20356;-81
2023/03/21 14:10:01;;;;;;;4.07;2.10;;;;;;;;;;6073857;23;20076;-80
2023/03/21 14:12:40;;;;;;;3.22;2.03;;;;;;;;;;6051582;23;20022;-81
2023/03/21 14:15:23;;;;;;;6.88;2.22;;;;;;;;;;6025296;23;20504;-81
2023/03/21 14:18:00;;;;;;;3.95;1.75;;;;;;;;;;6052003;23;20033;-81
2023/03/21 14:20:42;;;;;;;4.35;2.25;;;;;;;;;;6056330;23;20029;-81
2023/03/21 14:23:19;;;;;;;3.17;2.03;;;;;;;;;;6073312;23;20029;-82
2023/03/21 14:25:47;;;;;;;3.10;2.13;;;;;;;;;;6051435;23;20026;-81
2023/03/21 14:28:31;;;;;;;2.63;1.98;;;;;;;;;;6049968;23;20022;-81
2023/03/21 14:30:59;;;;;;;3.67;2.10;;;;;;;;;;6057158;23;20378;-82
2023/03/21 14:33:40;;;;;;;5.22;2.58;;;;;;;;;;6052009;23;20054;-83
2023/03/21 14:36:15;;;;;;;4.38;1.85;;;;;;;;;;6075994;23;20026;-81
2023/03/21 14:38:42;;;;;;;4.53;2.47;;;;;;;;;;6050082;23;20026;-83
2023/03/21 14:41:27;;;;;;;5.03;2.03;;;;;;;;;;6053269;23;20026;-81
2023/03/21 14:44:25;;;;;;;3.95;2.15;;;;;;;;;;6056480;23;20089;-81
2023/03/21 14:47:01;;;;;;;3.22;2.03;;;;;;;;;;6045250;23;20041;-81
2023/03/21 14:49:36;;;;;;;3.67;1.92;;;;;;;;;;6057865;23;20042;-81
2023/03/21 14:52:06;;;;;;;3.78;2.15;;;;;;;;;;6053204;23;20470;-82
2023/03/21 14:54:33;;;;;;;6.88;2.45;;;;;;;;;;6049258;23;20412;-82
2023/03/21 14:57:02;;;;;;;4.78;1.92;;;;;;;;;;6024830;23;20430;-81
2023/03/21 14:59:37;;;;;;;2.17;1.98;;;;;;;;;;6049865;23;20037;-82
2023/03/21 15:02:17;;;;;;;5.13;2.50;;;;;;;;;;6049246;23;20053;-80
2023/03/21 15:04:50;;;;;;;2.92;2.05;;;;;;;;;;6051612;23;20122;-82
2023/03/21 15:07:32;;;;;;;3.65;2.10;;;;;;;;;;6047071;23;20063;-75
2023/03/21 15:10:20;;;;;;;6.93;2.63;;;;;;;;;;6025594;23;20041;-80
2023/03/21 15:12:57;;;;;;;3.67;2.38;;;;;;;;;;6027186;23;20125;-80
2023/03/21 15:15:32;;;;;;;3.47;1.70;;;;;;;;;;6050843;23;20026;-81
2023/03/21 15:18:03;;;;;;;3.97;1.90;;;;;;;;;;6047783;23;20368;-83